createdAt,value
2023-02-04T00:01:47.533Z,0.70
2023-02-04T00:04:14.576Z,0.60
2023-02-04T00:06:41.718Z,0.80
2023-02-04T00:09:08.630Z,0.82
2023-02-04T00:11:35.414Z,0.80
2023-02-04T00:14:02.161Z,1.00
2023-02-04T00:16:28.871Z,0.80
2023-02-04T00:18:55.643Z,0.77
2023-02-04T00:21:22.307Z,0.85
2023-02-04T00:23:51.103Z,0.90
2023-02-04T00:26:18.004Z,1.00
2023-02-04T00:28:44.727Z,0.95
2023-02-04T00:31:11.470Z,1.00
2023-02-04T00:33:39.442Z,0.90
2023-02-04T00:36:06.441Z,0.95
2023-02-04T00:38:33.110Z,0.70
2023-02-04T00:40:59.823Z,0.80
2023-02-04T00:43:26.616Z,0.88
2023-02-04T00:45:53.343Z,0.73
2023-02-04T00:48:20.068Z,0.55
2023-02-04T00:50:46.795Z,0.88
2023-02-04T00:53:13.483Z,0.90
2023-02-04T00:55:40.150Z,0.73
2023-02-04T00:58:06.838Z,0.70
2023-02-04T01:00:33.786Z,0.70
2023-02-04T01:03:00.743Z,0.80
2023-02-04T01:05:27.432Z,0.52
2023-02-04T01:07:54.447Z,0.90
2023-02-04T01:10:21.158Z,1.02
2023-02-04T01:12:47.975Z,1.02
2023-02-04T01:15:14.992Z,1.08
2023-02-04T01:17:41.873Z,1.08
2023-02-04T01:20:10.204Z,1.05
2023-02-04T01:22:36.937Z,0.80
2023-02-04T01:25:03.826Z,0.80
2023-02-04T01:27:45.214Z,0.90
2023-02-04T01:30:13.952Z,0.68
2023-02-04T01:32:40.821Z,0.98
2023-02-04T01:35:08.208Z,0.85
2023-02-04T01:37:34.961Z,1.02
2023-02-04T01:40:01.707Z,1.17
2023-02-04T01:42:28.446Z,1.00
2023-02-04T01:44:55.120Z,1.00
2023-02-04T01:47:22.390Z,0.90
2023-02-04T01:49:52.566Z,0.98
2023-02-04T01:52:19.609Z,0.90
2023-02-04T01:54:46.361Z,0.80
2023-02-04T01:57:16.081Z,0.80
2023-02-04T01:59:47.603Z,0.70
2023-02-04T02:02:37.969Z,0.60
2023-02-04T02:05:05.312Z,0.90
2023-02-04T02:07:32.031Z,0.60
2023-02-04T02:09:59.339Z,0.40
2023-02-04T02:12:26.072Z,0.50
2023-02-04T02:14:52.840Z,0.40
2023-02-04T02:17:19.534Z,0.60
2023-02-04T02:19:46.266Z,0.60
2023-02-04T02:22:28.526Z,0.40
2023-02-04T02:24:55.290Z,0.50
2023-02-04T02:27:22.475Z,0.60
2023-02-04T02:29:50.387Z,0.50
2023-02-04T02:32:17.571Z,0.60
2023-02-04T02:34:46.012Z,0.50
2023-02-04T02:37:13.323Z,0.50
2023-02-04T02:39:43.084Z,0.65
2023-02-04T02:42:12.400Z,0.50
2023-02-04T02:44:39.127Z,0.57
2023-02-04T02:47:05.802Z,0.52
2023-02-04T02:49:34.853Z,0.50
2023-02-04T02:52:01.669Z,0.60
2023-02-04T02:54:32.325Z,0.57
2023-02-04T02:57:02.485Z,0.65
2023-02-04T02:59:29.264Z,0.60
2023-02-04T03:02:01.103Z,0.60
2023-02-04T03:04:32.155Z,0.63
2023-02-04T03:06:59.892Z,0.60
2023-02-04T03:09:28.154Z,0.60
2023-02-04T03:11:54.964Z,0.60
2023-02-04T03:14:25.239Z,0.50
2023-02-04T03:16:53.666Z,0.60
2023-02-04T03:19:21.064Z,0.70
2023-02-04T03:21:49.303Z,0.73
2023-02-04T03:24:16.273Z,0.68
2023-02-04T03:26:43.137Z,0.68
2023-02-04T03:29:11.553Z,0.70
2023-02-04T03:31:38.572Z,0.90
2023-02-04T03:34:05.464Z,0.57
2023-02-04T03:36:32.627Z,0.63
2023-02-04T03:38:59.335Z,0.73
2023-02-04T03:41:26.355Z,0.60
2023-02-04T03:43:53.023Z,0.40
2023-02-04T03:46:19.732Z,0.50
2023-02-04T03:48:46.434Z,0.57
2023-02-04T03:51:13.133Z,0.52
2023-02-04T03:53:39.794Z,0.70
2023-02-04T03:56:06.690Z,0.70
2023-02-04T03:58:33.423Z,0.60
2023-02-04T04:01:00.118Z,0.70
2023-02-04T04:03:26.782Z,0.80
2023-02-04T04:05:53.504Z,0.70
2023-02-04T04:08:20.221Z,0.65
2023-02-04T04:10:46.883Z,0.90
2023-02-04T04:13:13.552Z,0.80
2023-02-04T04:15:40.250Z,0.80
2023-02-04T04:18:06.926Z,0.88
2023-02-04T04:20:33.974Z,1.00
2023-02-04T04:23:00.871Z,0.98
2023-02-04T04:25:27.591Z,1.10
2023-02-04T04:27:54.302Z,1.10
2023-02-04T04:30:21.054Z,1.02
2023-02-04T04:32:47.729Z,1.20
2023-02-04T04:35:14.444Z,1.30
2023-02-04T04:37:41.125Z,1.30
2023-02-04T04:40:09.233Z,1.15
2023-02-04T04:42:35.902Z,1.42
2023-02-04T04:45:03.805Z,1.20
2023-02-04T04:47:30.482Z,1.00
2023-02-04T04:49:57.178Z,0.88
2023-02-04T04:52:24.249Z,0.70
2023-02-04T04:54:50.903Z,0.88
2023-02-04T04:57:17.595Z,1.10
2023-02-04T04:59:44.251Z,0.90
2023-02-04T05:02:11.127Z,0.70
2023-02-04T05:04:38.120Z,1.00
2023-02-04T05:07:04.978Z,0.75
2023-02-04T05:09:31.910Z,1.10
2023-02-04T05:11:58.630Z,1.00
2023-02-04T05:14:25.339Z,1.00
2023-02-04T05:16:52.086Z,0.90
2023-02-04T05:19:18.741Z,1.10
2023-02-04T05:21:45.472Z,1.20
2023-02-04T05:24:12.251Z,1.00
2023-02-04T05:26:38.995Z,1.00
2023-02-04T05:29:06.049Z,1.38
2023-02-04T05:31:34.073Z,1.10
2023-02-04T05:34:00.804Z,0.98
2023-02-04T05:36:27.737Z,1.10
2023-02-04T05:38:54.447Z,1.00
2023-02-04T05:41:21.104Z,0.98
2023-02-04T05:43:47.784Z,1.30
2023-02-04T05:46:14.531Z,0.93
2023-02-04T05:48:41.316Z,1.10
2023-02-04T05:51:08.065Z,0.90
2023-02-04T05:53:34.822Z,1.08
2023-02-04T05:56:02.203Z,1.42
2023-02-04T05:58:33.607Z,3.75
2023-02-04T06:01:04.288Z,2.80
2023-02-04T06:03:31.732Z,3.20
2023-02-04T06:05:58.488Z,1.85
2023-02-04T06:08:25.251Z,1.52
2023-02-04T06:10:51.928Z,1.67
2023-02-04T06:13:18.845Z,1.50
2023-02-04T06:15:45.500Z,1.33
2023-02-04T06:18:12.253Z,3.38
2023-02-04T06:20:39.208Z,1.77
2023-02-04T06:23:05.878Z,1.92
2023-02-04T06:25:32.639Z,1.98
2023-02-04T06:27:59.342Z,1.70
2023-02-04T06:30:26.061Z,1.90
2023-02-04T06:32:53.010Z,1.60
2023-02-04T06:35:20.012Z,2.00
2023-02-04T06:37:46.692Z,1.95
2023-02-04T06:40:13.497Z,2.05
2023-02-04T06:42:40.252Z,2.28
2023-02-04T06:45:10.533Z,1.90
2023-02-04T06:47:37.465Z,2.03
2023-02-04T06:50:04.288Z,2.10
2023-02-04T06:52:31.013Z,2.28
2023-02-04T06:54:57.777Z,2.00
2023-02-04T06:57:24.501Z,2.20
2023-02-04T06:59:51.301Z,2.03
2023-02-04T07:02:18.042Z,1.98
2023-02-04T07:04:46.085Z,1.67
2023-02-04T07:07:14.210Z,1.75
2023-02-04T07:09:41.018Z,2.10
2023-02-04T07:12:07.821Z,1.77
2023-02-04T07:14:34.603Z,1.50
2023-02-04T07:17:01.363Z,1.30
2023-02-04T07:19:28.190Z,1.60
2023-02-04T07:21:57.061Z,1.50
2023-02-04T07:24:24.160Z,1.65
2023-02-04T07:26:51.311Z,1.40
2023-02-04T07:29:25.644Z,2.63
2023-02-04T07:31:53.284Z,2.47
2023-02-04T07:34:20.920Z,1.58
2023-02-04T07:36:47.913Z,1.35
2023-02-04T07:39:14.913Z,1.20
2023-02-04T07:41:41.606Z,1.30
2023-02-04T07:44:08.370Z,1.67
2023-02-04T07:46:35.077Z,1.70
2023-02-04T07:49:01.814Z,1.88
2023-02-04T07:51:28.619Z,1.90
2023-02-04T07:53:56.521Z,2.00
2023-02-04T07:56:23.453Z,3.00
2023-02-04T07:58:50.247Z,2.63
2023-02-04T08:01:17.093Z,2.88
2023-02-04T08:03:44.224Z,2.85
2023-02-04T08:06:11.267Z,2.40
2023-02-04T08:08:37.983Z,2.42
2023-02-04T08:11:04.748Z,2.30
2023-02-04T08:13:31.587Z,3.13
2023-02-04T08:15:58.377Z,2.78
2023-02-04T08:18:25.205Z,2.63
2023-02-04T08:20:52.072Z,3.10
2023-02-04T08:23:18.918Z,2.45
2023-02-04T08:25:45.655Z,2.00
2023-02-04T08:28:12.500Z,1.98
2023-02-04T08:30:39.263Z,2.30
2023-02-04T08:33:06.026Z,2.78
2023-02-04T08:35:32.713Z,2.55
2023-02-04T08:37:59.413Z,2.30
2023-02-04T08:40:26.121Z,2.38
2023-02-04T08:42:52.850Z,2.35
2023-02-04T08:45:19.547Z,2.30
2023-02-04T08:47:46.405Z,2.35
2023-02-04T08:50:13.420Z,1.88
2023-02-04T08:52:40.206Z,2.20
2023-02-04T08:55:07.362Z,1.98
2023-02-04T08:57:34.995Z,2.70
2023-02-04T09:00:02.023Z,2.10
2023-02-04T09:02:28.814Z,2.05
2023-02-04T09:04:55.518Z,1.98
2023-02-04T09:07:22.482Z,2.05
2023-02-04T09:09:49.231Z,1.90
2023-02-04T09:12:15.970Z,4.70
2023-02-04T09:14:42.691Z,4.43
2023-02-04T09:17:09.426Z,3.97
2023-02-04T09:19:36.152Z,4.85
2023-02-04T09:22:03.062Z,4.65
2023-02-04T09:24:29.772Z,8.15
2023-02-04T09:26:56.449Z,5.03
2023-02-04T09:29:23.115Z,4.10
2023-02-04T09:31:49.873Z,5.20
2023-02-04T09:34:16.655Z,3.22
2023-02-04T09:36:43.896Z,3.35
2023-02-04T09:39:11.093Z,3.22
2023-02-04T09:41:40.459Z,4.07
2023-02-04T09:44:16.973Z,4.78
2023-02-04T09:46:49.498Z,3.60
2023-02-04T09:51:44.831Z,2.42
2023-02-04T09:54:17.295Z,2.28
2023-02-04T09:59:17.174Z,2.83
2023-02-04T10:01:44.501Z,2.47
2023-02-04T10:04:14.231Z,2.40
2023-02-04T10:06:44.430Z,2.50
2023-02-04T10:09:12.411Z,2.45
2023-02-04T10:11:41.621Z,2.25
2023-02-04T10:14:16.204Z,2.35
2023-02-04T10:16:43.871Z,2.83
2023-02-04T10:19:15.893Z,2.35
2023-02-04T10:21:44.762Z,2.58
2023-02-04T10:24:18.842Z,2.55
2023-02-04T10:26:45.882Z,3.97
2023-02-04T10:29:17.928Z,3.03
2023-02-04T10:31:46.974Z,3.22
2023-02-04T10:34:32.024Z,2.40
2023-02-04T10:36:58.892Z,2.13
2023-02-04T10:39:30.372Z,3.00
2023-02-04T10:41:59.695Z,2.80
2023-02-04T10:44:39.601Z,2.47
2023-02-04T10:47:18.662Z,2.47
2023-02-04T10:50:05.652Z,2.10
2023-02-04T10:52:41.311Z,4.57
2023-02-04T10:55:14.143Z,5.00
2023-02-04T10:57:42.197Z,3.00
2023-02-04T11:00:23.062Z,3.38
2023-02-04T11:03:01.792Z,2.08
2023-02-04T11:05:33.881Z,4.80
2023-02-04T11:08:01.317Z,6.68
2023-02-04T11:10:33.843Z,7.80
2023-02-04T11:13:05.978Z,3.03
2023-02-04T11:15:44.448Z,3.47
2023-02-04T11:18:20.244Z,2.90
2023-02-04T11:20:51.846Z,3.53
2023-02-04T11:23:27.623Z,3.47
2023-02-04T11:26:09.714Z,1.75
2023-02-04T11:29:00.616Z,1.90
2023-02-04T11:31:28.866Z,2.22
2023-02-04T11:34:10.867Z,3.38
2023-02-04T11:37:02.313Z,3.55
2023-02-04T11:39:32.824Z,3.17
2023-02-04T11:42:00.672Z,4.50
2023-02-04T11:44:27.810Z,2.13
2023-02-04T11:46:55.859Z,3.50
2023-02-04T11:49:24.817Z,3.15
2023-02-04T11:52:02.500Z,2.85
2023-02-04T11:54:29.205Z,3.00
2023-02-04T11:56:59.872Z,2.70
2023-02-04T11:59:26.838Z,2.42
2023-02-04T12:02:04.981Z,3.03
2023-02-04T12:04:31.654Z,2.17
2023-02-04T12:07:03.952Z,2.38
2023-02-04T12:09:32.127Z,2.70
2023-02-04T12:12:03.309Z,2.47
2023-02-04T12:14:36.789Z,2.42
2023-02-04T12:17:20.547Z,3.45
2023-02-04T12:19:47.275Z,3.42
2023-02-04T12:22:15.623Z,2.65
2023-02-04T12:24:43.885Z,2.08
2023-02-04T12:27:10.698Z,2.00
2023-02-04T12:29:37.367Z,1.98
2023-02-04T12:32:04.370Z,1.83
2023-02-04T12:34:31.087Z,2.28
2023-02-04T12:36:57.760Z,2.30
2023-02-04T12:39:24.429Z,1.52
2023-02-04T12:41:51.084Z,1.35
2023-02-04T12:44:17.751Z,1.30
2023-02-04T12:46:44.473Z,1.90
2023-02-04T12:49:11.185Z,1.80
2023-02-04T12:51:37.879Z,2.03
2023-02-04T12:54:04.655Z,1.88
2023-02-04T12:56:31.496Z,1.95
2023-02-04T12:58:58.171Z,2.13
2023-02-04T13:01:24.882Z,1.75
2023-02-04T13:03:51.571Z,1.77
2023-02-04T13:06:18.247Z,1.80
2023-02-04T13:08:44.948Z,4.22
2023-02-04T13:11:11.602Z,3.25
2023-02-04T13:13:38.284Z,2.53
2023-02-04T13:16:05.176Z,3.88
2023-02-04T13:18:31.896Z,3.78
2023-02-04T13:20:58.576Z,2.60
2023-02-04T13:23:25.298Z,4.03
2023-02-04T13:25:51.959Z,2.63
2023-02-04T13:28:18.665Z,2.67
2023-02-04T13:30:45.403Z,2.30
2023-02-04T13:33:12.168Z,2.13
2023-02-04T13:35:38.939Z,3.00
2023-02-04T13:38:05.597Z,3.45
2023-02-04T13:40:32.252Z,5.30
2023-02-04T13:42:58.919Z,9.20
2023-02-04T13:45:25.685Z,11.48
2023-02-04T13:47:52.454Z,6.75
2023-02-04T13:50:19.191Z,4.70
2023-02-04T13:52:45.887Z,2.30
2023-02-04T13:55:12.542Z,2.60
2023-02-04T13:57:39.208Z,1.70
2023-02-04T14:00:07.486Z,2.42
2023-02-04T14:02:43.094Z,1.90
2023-02-04T14:05:09.896Z,2.65
2023-02-04T14:07:36.618Z,1.60
2023-02-04T14:10:03.581Z,1.27
2023-02-04T14:12:30.269Z,1.30
2023-02-04T14:14:56.971Z,1.40
2023-02-04T14:17:23.669Z,1.40
2023-02-04T14:19:50.446Z,1.80
2023-02-04T14:22:17.169Z,1.60
2023-02-04T14:24:44.617Z,1.23
2023-02-04T14:27:11.575Z,1.45
2023-02-04T14:29:38.266Z,1.40
2023-02-04T14:32:05.265Z,1.15
2023-02-04T14:34:32.008Z,1.63
2023-02-04T14:36:58.689Z,1.80
2023-02-04T14:39:25.394Z,1.75
2023-02-04T14:41:52.206Z,1.58
2023-02-04T14:44:20.829Z,1.60
2023-02-04T14:46:48.906Z,1.45
2023-02-04T14:49:16.589Z,1.85
2023-02-04T14:51:43.964Z,1.52
2023-02-04T14:54:11.046Z,1.70
2023-02-04T14:56:38.028Z,2.15
2023-02-04T14:59:05.074Z,2.33
2023-02-04T15:01:32.155Z,2.25
2023-02-04T15:03:58.909Z,5.10
2023-02-04T15:06:25.844Z,2.50
2023-02-04T15:08:52.722Z,6.28
2023-02-04T15:11:19.418Z,3.50
2023-02-04T15:13:46.512Z,1.95
2023-02-04T15:16:14.716Z,3.38
2023-02-04T15:18:42.081Z,2.58
2023-02-04T15:21:10.093Z,3.63
2023-02-04T15:23:37.120Z,8.68
2023-02-04T15:26:03.874Z,4.80
2023-02-04T15:28:31.330Z,5.32
2023-02-04T15:30:58.501Z,7.78
2023-02-04T15:33:25.473Z,6.80
2023-02-04T15:35:52.193Z,4.32
2023-02-04T15:38:19.017Z,2.45
2023-02-04T15:40:45.703Z,3.85
2023-02-04T15:43:12.433Z,4.38
2023-02-04T15:45:41.382Z,3.17
2023-02-04T15:48:08.525Z,4.68
2023-02-04T15:50:35.429Z,3.60
2023-02-04T15:53:02.298Z,3.38
2023-02-04T15:55:29.433Z,21.40
2023-02-04T15:57:56.163Z,7.47
2023-02-04T16:00:23.024Z,3.28
2023-02-04T16:02:49.878Z,2.65
2023-02-04T16:05:17.235Z,2.70
2023-02-04T16:07:43.997Z,2.95
2023-02-04T16:10:11.055Z,2.80
2023-02-04T16:12:37.906Z,2.83
2023-02-04T16:15:04.885Z,3.03
2023-02-04T16:17:31.803Z,5.07
2023-02-04T16:19:58.488Z,4.13
2023-02-04T16:22:25.163Z,2.80
2023-02-04T16:24:52.855Z,2.85
2023-02-04T16:27:19.938Z,3.55
2023-02-04T16:29:47.064Z,6.78
2023-02-04T16:32:14.334Z,7.20
2023-02-04T16:34:41.052Z,10.38
2023-02-04T16:37:07.815Z,6.13
2023-02-04T16:39:34.507Z,3.35
2023-02-04T16:42:01.150Z,2.80
2023-02-04T16:44:27.865Z,2.83
2023-02-04T16:46:54.954Z,21.35
2023-02-04T16:49:21.682Z,9.68
2023-02-04T16:51:48.416Z,10.73
2023-02-04T16:54:15.189Z,17.60
2023-02-04T16:56:41.912Z,22.42
2023-02-04T16:59:08.624Z,5.90
2023-02-04T17:01:35.397Z,4.05
2023-02-04T17:04:02.154Z,3.53
2023-02-04T17:06:31.118Z,13.38
2023-02-04T17:08:58.198Z,19.20
2023-02-04T17:11:34.241Z,5.90
2023-02-04T17:14:09.916Z,3.40
2023-02-04T17:16:37.274Z,3.88
2023-02-04T17:19:04.555Z,3.10
2023-02-04T17:21:31.433Z,3.97
2023-02-04T17:24:03.932Z,6.00
2023-02-04T17:26:36.874Z,6.47
2023-02-04T17:31:38.655Z,4.72
2023-02-04T17:34:05.952Z,4.90
2023-02-04T17:36:32.712Z,5.30
2023-02-04T17:38:59.566Z,4.70
2023-02-04T17:41:26.237Z,5.28
2023-02-04T17:43:53.090Z,4.38
2023-02-04T17:46:20.124Z,4.20
2023-02-04T17:48:46.931Z,5.00
2023-02-04T17:51:13.989Z,4.53
2023-02-04T17:53:41.110Z,5.05
2023-02-04T17:56:15.087Z,4.80
2023-02-04T17:58:42.577Z,4.63
2023-02-04T18:01:18.716Z,7.03
2023-02-04T18:03:46.435Z,20.02
2023-02-04T18:06:16.055Z,16.25
2023-02-04T18:08:42.736Z,10.82
2023-02-04T18:11:16.600Z,14.50
2023-02-04T18:13:43.361Z,12.23
2023-02-04T18:16:28.442Z,12.20
2023-02-04T18:18:57.910Z,8.57
2023-02-04T18:21:27.173Z,8.27
2023-02-04T18:24:30.465Z,9.00
2023-02-04T18:27:00.566Z,9.88
2023-02-04T18:29:27.229Z,8.93
2023-02-04T18:32:16.243Z,8.45
2023-02-04T18:34:51.774Z,7.63
2023-02-04T18:37:36.432Z,9.93
2023-02-04T18:40:09.099Z,8.20
2023-02-04T18:42:41.081Z,5.30
2023-02-04T18:45:24.942Z,4.70
2023-02-04T18:47:55.566Z,4.65
2023-02-04T18:50:32.143Z,4.30
2023-02-04T18:53:21.771Z,4.05
2023-02-04T18:55:57.864Z,5.35
2023-02-04T18:58:40.756Z,6.40
2023-02-04T19:01:10.446Z,5.72
2023-02-04T19:04:04.748Z,6.75
2023-02-04T19:06:40.457Z,7.20
2023-02-04T19:09:10.122Z,7.82
2023-02-04T19:11:46.458Z,11.55
2023-02-04T19:14:38.886Z,22.70
2023-02-04T19:17:14.766Z,29.77
2023-02-04T19:19:47.467Z,16.55
2023-02-04T19:22:22.251Z,13.23
2023-02-04T19:25:01.589Z,12.07
2023-02-04T19:27:33.665Z,10.68
2023-02-04T19:30:19.206Z,6.95
2023-02-04T19:32:45.995Z,6.63
2023-02-04T19:35:18.198Z,4.95
2023-02-04T19:37:46.906Z,8.63
2023-02-04T19:40:26.014Z,8.77
2023-02-04T19:42:55.416Z,7.50
2023-02-04T19:45:27.140Z,7.28
2023-02-04T19:47:55.608Z,8.48
2023-02-04T19:50:31.762Z,8.65
2023-02-04T19:53:06.785Z,6.80
2023-02-04T19:55:45.520Z,5.03
2023-02-04T19:58:20.900Z,4.80
2023-02-04T20:01:12.009Z,7.30
2023-02-04T20:03:49.602Z,6.95
2023-02-04T20:06:30.203Z,7.05
2023-02-04T20:09:10.140Z,4.63
2023-02-04T20:11:59.209Z,5.63
2023-02-04T20:14:35.280Z,6.30
2023-02-04T20:17:10.671Z,5.40
2023-02-04T20:19:37.970Z,5.65
2023-02-04T20:22:23.517Z,6.50
2023-02-04T20:24:53.450Z,4.97
2023-02-04T20:27:36.647Z,5.47
2023-02-04T20:30:27.915Z,7.35
2023-02-04T20:32:59.678Z,5.85
2023-02-04T20:35:31.408Z,6.35
2023-02-04T20:38:00.409Z,5.70
2023-02-04T20:40:32.406Z,5.15
2023-02-04T20:43:05.994Z,4.93
2023-02-04T20:45:55.338Z,4.88
2023-02-04T20:48:38.168Z,5.57
2023-02-04T20:51:13.758Z,5.68
2023-02-04T20:53:58.958Z,6.15
2023-02-04T20:56:43.769Z,6.20
2023-02-04T20:59:26.711Z,21.35
2023-02-04T21:01:53.580Z,19.50
2023-02-04T21:04:23.034Z,8.45
2023-02-04T21:06:54.882Z,4.85
2023-02-04T21:09:27.494Z,5.47
2023-02-04T21:11:55.511Z,4.82
2023-02-04T21:14:24.116Z,5.07
2023-02-04T21:16:51.346Z,4.65
2023-02-04T21:19:18.010Z,4.93
2023-02-04T21:21:44.888Z,5.05
2023-02-04T21:24:11.870Z,5.20
2023-02-04T21:26:38.732Z,8.55
2023-02-04T21:29:06.257Z,8.65
2023-02-04T21:31:33.107Z,6.15
2023-02-04T21:33:59.931Z,5.18
2023-02-04T21:36:27.847Z,5.43
2023-02-04T21:38:56.007Z,10.75
2023-02-04T21:41:23.613Z,10.75
2023-02-04T21:43:50.980Z,28.90
2023-02-04T21:46:18.713Z,29.52
2023-02-04T21:48:46.120Z,15.57
2023-02-04T21:51:14.182Z,6.80
2023-02-04T21:53:41.695Z,4.22
2023-02-04T21:56:09.153Z,4.22
2023-02-04T21:58:36.483Z,3.90
2023-02-04T22:01:03.161Z,3.55
2023-02-04T22:03:29.940Z,3.67
2023-02-04T22:05:56.685Z,3.67
2023-02-04T22:08:23.367Z,3.85
2023-02-04T22:10:50.033Z,4.28
2023-02-04T22:13:35.488Z,4.57
2023-02-04T22:16:02.229Z,4.40
2023-02-04T22:18:28.960Z,5.00
2023-02-04T22:20:55.687Z,4.60
2023-02-04T22:23:22.351Z,4.00
2023-02-04T22:25:49.024Z,4.53
2023-02-04T22:28:15.790Z,4.40
2023-02-04T22:30:42.685Z,3.60
2023-02-04T22:33:12.270Z,3.30
2023-02-04T22:35:39.112Z,3.40
2023-02-04T22:38:05.788Z,5.25
2023-02-04T22:40:32.489Z,4.20
2023-02-04T22:42:59.781Z,3.53
2023-02-04T22:45:26.431Z,3.25
2023-02-04T22:47:53.085Z,3.00
2023-02-04T22:50:19.855Z,3.53
2023-02-04T22:52:46.550Z,3.65
2023-02-04T22:55:13.474Z,4.18
2023-02-04T22:57:40.210Z,5.93
2023-02-04T23:00:09.293Z,6.32
2023-02-04T23:02:36.001Z,4.30
2023-02-04T23:05:03.409Z,4.07
2023-02-04T23:07:30.724Z,3.75
2023-02-04T23:09:57.435Z,3.72
2023-02-04T23:12:24.354Z,3.28
2023-02-04T23:14:51.043Z,3.45
2023-02-04T23:17:18.436Z,3.50
2023-02-04T23:19:45.765Z,3.45
2023-02-04T23:22:13.729Z,3.38
2023-02-04T23:24:40.984Z,4.10
2023-02-04T23:27:09.378Z,4.05
2023-02-04T23:29:36.161Z,4.15
2023-02-04T23:32:03.759Z,3.78
2023-02-04T23:34:30.994Z,3.63
2023-02-04T23:36:57.756Z,3.60
2023-02-04T23:39:24.460Z,3.80
2023-02-04T23:41:51.349Z,3.65
2023-02-04T23:44:18.256Z,3.97
2023-02-04T23:46:45.195Z,4.72
2023-02-04T23:49:12.221Z,4.53
2023-02-04T23:51:38.934Z,3.92
2023-02-04T23:54:07.037Z,3.80
2023-02-04T23:56:33.784Z,3.75
2023-02-04T23:59:01.164Z,4.40
